Time;durP1;ratioP1;P1;durP2;ratioP2;P2;SDS_P1;SDS_P2;PMS_P1;PMS_P2;Temp;Humidity;BMP_temperature;BMP_pressure;BME280_temperature;BME280_humidity;BME280_pressure;Samples;Min_cycle;Max_cycle;Signal;HPM_P1;HPM_P2
2022/05/16 00:02:07;;;;;;;9.40;2.05;;;19.70;56.60;;;;;;4997698;28;20041;-76
2022/05/16 00:04:36;;;;;;;6.93;1.50;;;19.60;56.60;;;;;;5030158;28;20037;-76
2022/05/16 00:07:02;;;;;;;11.35;1.67;;;19.60;56.70;;;;;;4997297;28;20496;-77
2022/05/16 00:09:27;;;;;;;8.77;1.95;;;19.60;56.80;;;;;;5014964;28;20022;-77
2022/05/16 00:11:53;;;;;;;8.93;1.83;;;19.50;57.00;;;;;;4997580;28;20088;-77
2022/05/16 00:14:20;;;;;;;8.60;2.00;;;19.50;57.10;;;;;;4997194;28;20030;-77
2022/05/16 00:16:45;;;;;;;9.75;1.85;;;19.40;57.30;;;;;;5014731;28;20022;-77
2022/05/16 00:19:11;;;;;;;7.35;2.13;;;19.40;57.30;;;;;;4996545;28;20041;-76
2022/05/16 00:21:37;;;;;;;7.43;1.90;;;19.40;57.50;;;;;;4997134;28;20034;-77
2022/05/16 00:24:03;;;;;;;9.30;1.60;;;19.40;57.60;;;;;;4997095;28;20552;-77
2022/05/16 00:26:28;;;;;;;8.75;2.13;;;19.30;57.80;;;;;;5013385;28;20132;-76
2022/05/16 00:28:54;;;;;;;7.82;1.90;;;19.20;57.90;;;;;;4997038;28;20504;-76
2022/05/16 00:31:19;;;;;;;15.73;1.70;;;19.20;58.00;;;;;;4996988;28;20544;-76
2022/05/16 00:33:45;;;;;;;7.75;1.67;;;19.20;58.00;;;;;;4996932;28;20084;-76
2022/05/16 00:36:11;;;;;;;7.38;1.45;;;19.20;58.20;;;;;;4996860;28;20485;-76
2022/05/16 00:38:36;;;;;;;9.25;2.10;;;19.10;58.20;;;;;;4996740;28;20030;-76
2022/05/16 00:41:04;;;;;;;9.05;2.13;;;19.10;58.50;;;;;;4996604;28;20486;-76
2022/05/16 00:43:58;;;;;;;7.65;1.45;;;19.00;58.50;;;;;;5012896;28;20033;-76
2022/05/16 00:46:26;;;;;;;8.70;2.00;;;19.00;58.80;;;;;;5012714;28;20042;-76
2022/05/16 00:48:52;;;;;;;8.50;1.40;;;19.00;58.70;;;;;;4997012;28;20053;-76
2022/05/16 00:51:29;;;;;;;9.23;1.98;;;19.00;58.80;;;;;;4996617;28;20471;-76
2022/05/16 00:53:58;;;;;;;10.95;2.30;;;18.90;59.00;;;;;;5012897;28;20497;-76
2022/05/16 00:56:25;;;;;;;7.53;1.75;;;18.90;59.00;;;;;;5014135;28;20033;-76
2022/05/16 00:58:52;;;;;;;10.38;1.92;;;18.90;59.10;;;;;;5012738;28;20048;-76
2022/05/16 01:04:49;;;;;;;10.93;2.40;;;18.80;59.50;;;;;;4999225;28;20041;-76
2022/05/16 01:06:50;;;;;;;6.70;1.85;;;18.80;59.70;;;;;;4999137;28;20037;-76
2022/05/16 01:09:16;;;;;;;8.32;2.00;;;18.70;59.60;;;;;;5014118;28;20026;-76
2022/05/16 01:11:41;;;;;;;7.22;1.70;;;18.70;59.90;;;;;;4996397;28;20026;-76
2022/05/16 01:14:07;;;;;;;10.75;2.22;;;18.70;60.10;;;;;;4980037;28;20084;-76
2022/05/16 01:16:34;;;;;;;8.48;1.83;;;18.60;60.10;;;;;;4996265;28;20029;-76
2022/05/16 01:19:00;;;;;;;10.80;1.92;;;18.60;60.50;;;;;;4996093;28;20038;-77
2022/05/16 01:21:38;;;;;;;8.00;2.00;;;18.60;60.50;;;;;;5013600;28;20049;-76
2022/05/16 01:24:13;;;;;;;7.13;1.83;;;18.50;60.60;;;;;;5012284;28;20026;-77
2022/05/16 01:26:40;;;;;;;12.52;1.85;;;18.50;60.70;;;;;;5013672;28;20018;-75
2022/05/16 01:29:06;;;;;;;8.52;1.95;;;18.50;60.90;;;;;;5012438;28;20084;-77
2022/05/16 01:31:33;;;;;;;9.45;1.70;;;18.50;61.00;;;;;;5012328;28;20470;-77
2022/05/16 01:33:59;;;;;;;6.95;1.98;;;18.40;61.20;;;;;;5012651;28;20064;-77
2022/05/16 01:36:25;;;;;;;8.40;2.40;;;18.40;61.30;;;;;;4996038;28;20022;-77
2022/05/16 01:38:51;;;;;;;10.00;2.05;;;18.40;61.40;;;;;;4996042;28;20112;-77
2022/05/16 01:41:21;;;;;;;9.35;2.47;;;18.40;61.60;;;;;;5012204;28;20018;-77
2022/05/16 01:43:50;;;;;;;11.77;2.25;;;18.30;61.60;;;;;;5013583;28;20582;-77
2022/05/16 01:46:20;;;;;;;9.88;2.22;;;18.30;61.60;;;;;;5013407;28;20511;-77
2022/05/16 01:48:46;;;;;;;5.05;1.98;;;18.20;61.70;;;;;;5012234;28;20457;-77
2022/05/16 01:51:13;;;;;;;9.63;1.83;;;18.30;61.90;;;;;;4995932;28;20057;-77
2022/05/16 01:53:40;;;;;;;11.02;2.35;;;18.20;61.90;;;;;;5012191;28;20453;-77
2022/05/16 01:56:06;;;;;;;9.45;2.25;;;18.20;62.10;;;;;;4979532;28;20034;-77
2022/05/16 01:58:32;;;;;;;8.75;2.13;;;18.20;62.30;;;;;;4995741;28;20022;-76
2022/05/16 02:00:58;;;;;;;8.50;2.08;;;18.20;62.30;;;;;;4995701;28;20433;-77
2022/05/16 02:03:24;;;;;;;4.82;1.98;;;18.10;62.30;;;;;;4995573;28;20030;-77
2022/05/16 02:05:50;;;;;;;6.47;1.90;;;18.10;62.40;;;;;;4995788;28;20048;-77
2022/05/16 02:08:16;;;;;;;8.10;1.75;;;18.10;62.60;;;;;;5012097;28;20026;-77
2022/05/16 02:10:44;;;;;;;7.35;1.95;;;18.10;62.70;;;;;;5011948;28;20544;-77
2022/05/16 02:13:10;;;;;;;10.35;2.13;;;18.10;62.80;;;;;;5011988;28;20021;-77
2022/05/16 02:15:38;;;;;;;5.80;1.52;;;18.10;62.80;;;;;;4995605;28;20026;-77
2022/05/16 02:18:04;;;;;;;10.13;2.38;;;18.00;63.00;;;;;;5013167;28;20018;-77
2022/05/16 02:20:30;;;;;;;9.43;2.70;;;18.00;62.90;;;;;;5011884;28;20088;-77
2022/05/16 02:25:46;;;;;;;7.43;1.92;;;18.00;63.20;;;;;;5013114;28;20041;-77
2022/05/16 02:28:15;;;;;;;10.88;2.30;;;17.90;63.10;;;;;;4979362;28;20026;-77
2022/05/16 02:30:44;;;;;;;10.50;3.13;;;17.90;63.10;;;;;;5011843;28;20026;-76
2022/05/16 02:33:11;;;;;;;7.05;1.90;;;17.90;63.50;;;;;;5011762;28;20038;-78
2022/05/16 02:35:38;;;;;;;11.48;2.20;;;17.90;63.60;;;;;;5011852;28;20109;-76
2022/05/16 02:38:06;;;;;;;9.18;2.15;;;17.80;63.60;;;;;;5013048;28;20026;-77
2022/05/16 02:40:34;;;;;;;12.80;2.47;;;17.80;63.80;;;;;;5012998;28;20466;-77
2022/05/16 02:42:59;;;;;;;10.25;2.60;;;17.80;63.80;;;;;;5015040;28;20069;-77
2022/05/16 02:45:27;;;;;;;9.15;2.20;;;17.80;63.80;;;;;;5016453;28;20060;-77
2022/05/16 02:47:53;;;;;;;10.88;2.38;;;17.70;63.90;;;;;;5016253;28;20089;-76
2022/05/16 02:50:20;;;;;;;10.15;2.78;;;17.70;64.00;;;;;;4998848;28;20061;-77
2022/05/16 02:52:45;;;;;;;7.88;2.33;;;17.70;64.20;;;;;;5015100;28;20038;-77
2022/05/16 02:55:11;;;;;;;9.57;2.88;;;17.70;64.30;;;;;;4982804;28;20030;-77
2022/05/16 02:57:37;;;;;;;6.57;2.10;;;17.70;64.40;;;;;;4998779;28;20030;-77
2022/05/16 03:00:06;;;;;;;7.82;2.03;;;17.70;64.50;;;;;;4998666;28;20037;-77
2022/05/16 03:02:32;;;;;;;7.05;2.53;;;17.60;64.50;;;;;;5014492;28;20022;-77
2022/05/16 03:04:57;;;;;;;8.95;2.42;;;17.60;64.70;;;;;;5005613;28;20532;-77
2022/05/16 03:07:23;;;;;;;7.18;2.25;;;17.60;64.70;;;;;;5001838;28;20036;-77
2022/05/16 03:09:48;;;;;;;8.93;2.42;;;17.60;65.50;;;;;;5034188;28;20458;-77
2022/05/16 03:12:14;;;;;;;10.43;2.10;;;17.50;65.00;;;;;;5001906;28;20033;-77
2022/05/16 03:14:40;;;;;;;7.75;2.08;;;17.50;65.10;;;;;;5034333;28;20029;-77
2022/05/16 03:17:06;;;;;;;11.10;2.80;;;17.50;65.30;;;;;;5034360;28;20033;-76
2022/05/16 03:19:34;;;;;;;10.50;2.40;;;17.50;65.40;;;;;;5035739;28;20528;-77
2022/05/16 03:21:59;;;;;;;9.90;2.47;;;17.40;65.50;;;;;;5018314;28;20469;-77
2022/05/16 03:24:25;;;;;;;9.57;2.83;;;17.40;65.50;;;;;;5035250;28;20116;-76
2022/05/16 03:26:50;;;;;;;6.80;2.17;;;17.40;65.60;;;;;;5001457;28;20029;-76
2022/05/16 03:29:16;;;;;;;7.57;1.95;;;17.50;65.60;;;;;;5035534;28;20097;-76
2022/05/16 03:31:42;;;;;;;11.07;2.28;;;17.40;65.70;;;;;;5035353;28;20424;-78
2022/05/16 03:34:10;;;;;;;8.82;2.30;;;17.40;65.80;;;;;;5035368;28;20029;-76
2022/05/16 03:36:36;;;;;;;9.95;2.63;;;17.40;65.80;;;;;;5035263;28;20029;-78
2022/05/16 03:41:48;;;;;;;8.35;2.35;;;17.30;65.90;;;;;;5035648;28;20095;-78
2022/05/16 03:44:14;;;;;;;6.75;2.75;;;17.30;66.10;;;;;;5035202;28;20062;-78
2022/05/16 03:46:40;;;;;;;10.18;2.33;;;17.30;66.20;;;;;;5015904;28;20095;-76
2022/05/16 03:49:06;;;;;;;8.13;2.28;;;17.30;66.30;;;;;;4999316;28;20026;-79
2022/05/16 03:51:32;;;;;;;7.07;2.58;;;17.30;66.40;;;;;;5015752;28;20032;-78
2022/05/16 03:53:58;;;;;;;7.25;2.00;;;17.30;66.50;;;;;;5031435;28;20025;-77
2022/05/16 03:56:27;;;;;;;8.38;2.63;;;17.30;66.60;;;;;;5034980;28;20075;-76
2022/05/16 03:58:54;;;;;;;7.57;2.83;;;17.30;66.80;;;;;;5017083;28;20032;-78
2022/05/16 04:01:20;;;;;;;14.63;3.72;;;17.20;66.80;;;;;;4983833;28;20045;-79
2022/05/16 04:03:46;;;;;;;11.63;2.90;;;17.30;66.90;;;;;;5017159;28;20037;-77
2022/05/16 04:06:13;;;;;;;8.43;2.97;;;17.30;66.90;;;;;;5033426;28;20026;-77
2022/05/16 04:08:40;;;;;;;10.70;2.58;;;17.20;66.90;;;;;;5033320;28;20192;-77
2022/05/16 04:11:06;;;;;;;8.10;2.63;;;17.20;66.90;;;;;;5000581;28;20536;-77
2022/05/16 04:13:33;;;;;;;8.13;2.15;;;17.20;67.10;;;;;;5016834;28;20053;-77
2022/05/16 04:15:59;;;;;;;8.65;2.55;;;17.20;67.10;;;;;;5017218;28;20052;-77
2022/05/16 04:18:25;;;;;;;8.70;2.70;;;17.20;67.30;;;;;;5033215;28;20035;-78
2022/05/16 04:20:50;;;;;;;9.00;2.50;;;17.20;67.50;;;;;;5000518;28;20112;-77
2022/05/16 04:23:16;;;;;;;8.10;2.47;;;17.20;67.60;;;;;;5000612;28;20025;-77
2022/05/16 04:25:41;;;;;;;8.30;2.58;;;17.20;67.80;;;;;;5000297;28;20529;-78
2022/05/16 04:28:09;;;;;;;7.68;2.22;;;17.10;67.90;;;;;;5033091;28;20497;-78
2022/05/16 04:30:36;;;;;;;7.93;2.65;;;17.20;68.10;;;;;;5000212;28;20022;-77
2022/05/16 04:33:01;;;;;;;11.65;2.90;;;17.10;68.00;;;;;;5000338;28;20477;-77
2022/05/16 04:35:27;;;;;;;11.18;3.50;;;17.20;68.10;;;;;;5034015;28;20033;-76
2022/05/16 04:37:53;;;;;;;9.43;2.83;;;17.10;68.20;;;;;;5000197;28;20362;-75
2022/05/16 04:40:19;;;;;;;11.93;3.20;;;17.10;68.40;;;;;;4999200;28;20037;-76
2022/05/16 04:42:45;;;;;;;7.32;3.00;;;17.10;68.50;;;;;;5015929;28;20029;-76
2022/05/16 04:45:21;;;;;;;9.45;2.72;;;17.20;68.50;;;;;;5015653;28;20504;-76
2022/05/16 04:47:50;;;;;;;10.95;3.05;;;17.10;68.70;;;;;;5029971;28;20378;-76
2022/05/16 04:50:19;;;;;;;11.32;2.47;;;17.10;68.70;;;;;;5033403;28;20478;-76
2022/05/16 04:52:45;;;;;;;10.02;3.17;;;17.10;68.80;;;;;;5031809;28;20067;-77
2022/05/16 04:55:12;;;;;;;8.75;2.95;;;17.20;68.80;;;;;;5015262;28;20602;-78
2022/05/16 04:57:38;;;;;;;7.65;2.78;;;17.10;68.90;;;;;;5016173;28;20037;-76
2022/05/16 05:00:06;;;;;;;7.18;2.80;;;17.20;68.80;;;;;;5015711;28;20030;-76
2022/05/16 05:02:32;;;;;;;9.68;3.05;;;17.20;69.00;;;;;;5032700;28;20029;-77
2022/05/16 05:04:59;;;;;;;10.32;3.08;;;17.20;69.00;;;;;;5014811;28;20405;-76
2022/05/16 05:07:24;;;;;;;8.57;3.00;;;17.30;69.10;;;;;;5048985;28;20104;-77
2022/05/16 05:15:19;;;;;;;9.10;3.03;;;17.30;69.00;;;;;;5033805;28;20436;-77
2022/05/16 05:17:45;;;;;;;9.48;3.25;;;17.30;68.70;;;;;;5033402;28;20062;-76
2022/05/16 05:20:14;;;;;;;9.55;2.80;;;17.40;68.70;;;;;;5033325;28;20029;-76
2022/05/16 05:22:46;;;;;;;9.50;2.75;;;17.30;68.80;;;;;;5016333;28;20367;-75
2022/05/16 05:25:15;;;;;;;8.70;3.20;;;17.30;68.90;;;;;;5015406;28;20473;-75
2022/05/16 05:27:42;;;;;;;9.52;3.28;;;17.40;69.00;;;;;;5033254;28;20028;-76
2022/05/16 05:30:10;;;;;;;9.25;3.30;;;17.40;69.00;;;;;;5033066;28;20025;-76
2022/05/16 05:32:36;;;;;;;9.05;2.90;;;17.40;69.00;;;;;;4999304;28;20116;-76
2022/05/16 05:35:04;;;;;;;9.25;2.70;;;17.40;69.00;;;;;;5032986;28;20114;-75
2022/05/16 05:37:30;;;;;;;10.25;3.10;;;17.50;69.00;;;;;;5033258;28;20087;-74
2022/05/16 05:39:58;;;;;;;12.00;2.95;;;17.50;69.00;;;;;;5030305;28;20061;-75
2022/05/16 05:42:25;;;;;;;6.97;2.63;;;17.60;69.00;;;;;;5032224;28;20030;-75
2022/05/16 05:44:51;;;;;;;8.60;2.75;;;17.60;68.90;;;;;;5015895;28;20025;-74
2022/05/16 05:47:17;;;;;;;9.85;3.03;;;17.70;68.90;;;;;;5015459;28;20042;-73
2022/05/16 05:49:43;;;;;;;9.77;3.10;;;17.70;69.00;;;;;;5015570;28;20034;-74
2022/05/16 05:52:09;;;;;;;7.32;3.03;;;17.70;68.90;;;;;;5033083;28;20033;-74
2022/05/16 05:54:34;;;;;;;9.05;3.10;;;17.80;68.80;;;;;;5032940;28;20478;-74
2022/05/16 05:57:02;;;;;;;12.15;2.92;;;17.80;68.80;;;;;;5014270;28;20387;-74
2022/05/16 05:59:28;;;;;;;8.88;3.00;;;17.80;68.80;;;;;;5006635;28;20045;-75
2022/05/16 06:01:53;;;;;;;12.60;3.83;;;17.90;68.80;;;;;;5032318;28;20036;-74
2022/05/16 06:04:19;;;;;;;8.85;3.50;;;17.90;68.70;;;;;;4998555;28;20665;-75
2022/05/16 06:06:46;;;;;;;10.32;3.40;;;18.00;68.80;;;;;;5032214;28;20025;-75
2022/05/16 06:09:12;;;;;;;9.95;3.20;;;18.10;68.80;;;;;;5036511;28;20422;-75
2022/05/16 06:11:38;;;;;;;11.88;3.25;;;18.10;68.70;;;;;;4994115;28;20032;-74
2022/05/16 06:14:03;;;;;;;18.00;3.28;;;18.20;68.70;;;;;;5010722;28;20034;-75
2022/05/16 06:16:29;;;;;;;10.38;2.80;;;18.30;68.70;;;;;;4996367;28;20022;-75
2022/05/16 06:18:55;;;;;;;11.80;3.55;;;18.30;68.50;;;;;;5015771;28;20458;-77
2022/05/16 06:21:20;;;;;;;10.40;3.10;;;18.40;68.60;;;;;;5015405;28;20501;-74
2022/05/16 06:23:46;;;;;;;10.27;3.17;;;18.50;68.40;;;;;;5014866;28;20041;-74
2022/05/16 06:26:11;;;;;;;8.63;3.10;;;18.50;68.30;;;;;;5016588;28;20502;-74
2022/05/16 06:28:39;;;;;;;9.88;3.30;;;18.60;68.30;;;;;;5015567;28;20065;-75
2022/05/16 06:31:05;;;;;;;7.80;3.28;;;18.60;68.30;;;;;;4999207;28;20022;-75
2022/05/16 06:33:31;;;;;;;11.43;3.60;;;18.60;68.20;;;;;;5016458;28;20057;-75
2022/05/16 06:35:59;;;;;;;13.95;3.78;;;18.70;68.20;;;;;;5015261;28;20485;-75
2022/05/16 06:38:28;;;;;;;9.07;3.22;;;18.70;68.80;;;;;;4999035;28;20540;-75
2022/05/16 06:40:55;;;;;;;9.18;2.85;;;18.70;68.10;;;;;;4998948;28;20069;-74
2022/05/16 06:43:22;;;;;;;9.93;4.25;;;18.90;68.20;;;;;;5016420;28;20478;-75
2022/05/16 06:45:49;;;;;;;13.07;3.90;;;18.90;68.20;;;;;;5016375;28;20059;-73
2022/05/16 06:48:14;;;;;;;7.32;3.05;;;19.00;68.10;;;;;;5016379;28;20045;-74
2022/05/16 06:50:41;;;;;;;9.70;3.25;;;19.10;68.10;;;;;;4998674;28;20030;-75
2022/05/16 06:53:15;;;;;;;9.50;3.33;;;19.20;68.10;;;;;;4998637;28;20478;-74
2022/05/16 06:55:40;;;;;;;10.77;3.25;;;19.30;68.10;;;;;;5016244;28;20101;-73
2022/05/16 06:58:06;;;;;;;7.75;2.78;;;19.40;68.20;;;;;;5015116;28;20034;-74
2022/05/16 07:00:32;;;;;;;11.77;3.55;;;19.40;67.80;;;;;;5016285;28;20065;-73
2022/05/16 07:02:58;;;;;;;10.30;3.33;;;19.50;67.60;;;;;;5016042;28;20034;-73
2022/05/16 07:05:23;;;;;;;10.82;2.85;;;19.60;67.60;;;;;;4982559;28;20593;-73
2022/05/16 07:07:49;;;;;;;13.73;3.78;;;19.60;67.50;;;;;;5016093;28;20026;-75
2022/05/16 07:10:15;;;;;;;10.50;3.25;;;19.60;67.40;;;;;;5014888;28;20022;-77
2022/05/16 07:12:40;;;;;;;8.35;3.40;;;19.70;67.30;;;;;;5016040;28;20027;-77
2022/05/16 07:15:07;;;;;;;10.57;3.83;;;19.80;67.30;;;;;;4998361;28;20126;-78
2022/05/16 07:17:32;;;;;;;7.93;3.10;;;19.80;67.20;;;;;;5014775;28;20034;-76
2022/05/16 07:19:58;;;;;;;7.50;2.88;;;19.90;67.20;;;;;;4998226;28;20125;-79
2022/05/16 07:22:24;;;;;;;7.38;3.00;;;20.00;67.10;;;;;;5015686;28;20029;-76
2022/05/16 07:25:01;;;;;;;11.50;3.65;;;20.10;67.20;;;;;;5014558;28;20479;-78
2022/05/16 07:30:12;;;;;;;;;;;20.20;66.90;;;;;;5016334;28;20045;-76
2022/05/16 07:32:42;;;;;;;10.73;3.13;;;20.30;66.80;;;;;;4998125;28;19905;-77
2022/05/16 07:35:13;;;;;;;9.35;3.30;;;20.30;66.70;;;;;;4997928;28;20386;-76
2022/05/16 07:37:40;;;;;;;8.32;2.65;;;20.40;66.70;;;;;;5015723;28;20041;-76
2022/05/16 07:40:09;;;;;;;10.68;3.20;;;20.50;66.70;;;;;;5015397;28;20053;-77
2022/05/16 07:42:35;;;;;;;9.43;3.40;;;20.50;66.70;;;;;;5015415;28;20088;-77
2022/05/16 07:45:02;;;;;;;6.57;2.65;;;20.60;66.70;;;;;;4997663;28;20017;-77
2022/05/16 07:47:32;;;;;;;8.65;3.10;;;20.70;66.70;;;;;;5015064;28;20052;-77
2022/05/16 07:49:58;;;;;;;11.35;3.13;;;20.80;66.50;;;;;;5015268;28;20113;-78
2022/05/16 07:52:25;;;;;;;8.93;3.70;;;20.90;66.60;;;;;;5015304;28;20084;-78
2022/05/16 07:54:52;;;;;;;9.82;3.47;;;20.90;66.20;;;;;;5015300;28;20097;-75
2022/05/16 07:57:17;;;;;;;10.88;3.28;;;21.00;65.90;;;;;;5015294;28;20079;-74
2022/05/16 07:59:44;;;;;;;9.27;2.45;;;21.10;65.90;;;;;;4997544;28;20717;-75
2022/05/16 08:02:12;;;;;;;7.70;2.42;;;21.20;65.70;;;;;;4997617;28;20030;-75
2022/05/16 08:04:37;;;;;;;10.73;2.80;;;21.20;65.40;;;;;;5015051;28;20021;-75
2022/05/16 08:07:04;;;;;;;4.65;2.17;;;21.30;65.30;;;;;;5014961;28;20040;-75
2022/05/16 08:12:27;;;;;;;7.00;2.83;;;21.50;65.30;;;;;;4991970;28;20026;-77
2022/05/16 08:14:53;;;;;;;10.07;3.17;;;21.60;65.20;;;;;;4997211;28;20029;-77
2022/05/16 08:17:19;;;;;;;13.50;3.30;;;21.60;65.00;;;;;;5014795;28;20030;-77
2022/05/16 08:19:45;;;;;;;9.95;3.13;;;21.70;64.90;;;;;;5014914;28;20041;-79
2022/05/16 08:22:11;;;;;;;12.32;3.15;;;21.70;64.90;;;;;;5013325;28;20034;-77
2022/05/16 08:24:37;;;;;;;10.35;3.22;;;21.80;64.80;;;;;;5014639;28;20033;-77
2022/05/16 08:27:03;;;;;;;7.22;2.55;;;21.90;65.00;;;;;;5013641;28;20389;-78
2022/05/16 08:29:29;;;;;;;6.22;2.83;;;22.00;64.50;;;;;;4997140;28;20038;-77
2022/05/16 08:31:56;;;;;;;8.30;2.70;;;22.00;64.70;;;;;;4997004;28;20022;-77
2022/05/16 08:34:23;;;;;;;9.70;2.92;;;22.10;63.90;;;;;;5014563;28;20033;-78
2022/05/16 08:42:21;;;;;;;8.40;3.03;;;22.40;63.30;;;;;;4999859;28;20041;-74
2022/05/16 08:44:59;;;;;;;10.27;2.45;;;22.40;63.10;;;;;;5014194;28;20034;-75
2022/05/16 08:47:53;;;;;;;7.75;2.97;;;22.40;63.10;;;;;;5029345;28;20045;-75
2022/05/16 08:50:28;;;;;;;;;;;22.50;62.90;;;;;;4996941;28;20022;-75
2022/05/16 08:53:25;;;;;;;6.20;2.30;;;22.60;62.90;;;;;;5014169;28;19912;-75
2022/05/16 08:55:59;;;;;;;7.60;3.00;;;22.60;62.90;;;;;;5014145;28;20030;-75
2022/05/16 08:58:38;;;;;;;8.30;2.55;;;22.70;62.80;;;;;;5014037;28;20386;-74
2022/05/16 09:01:11;;;;;;;8.13;2.78;;;22.80;62.80;;;;;;5014058;28;20017;-74
2022/05/16 09:03:46;;;;;;;8.05;2.25;;;22.80;62.70;;;;;;5013812;28;20386;-74
2022/05/16 09:06:17;;;;;;;13.77;2.60;;;22.90;62.50;;;;;;5012748;28;20030;-75
2022/05/16 09:08:50;;;;;;;6.97;2.47;;;23.00;62.10;;;;;;5014349;28;20382;-75
2022/05/16 09:11:24;;;;;;;;;;;23.10;61.80;;;;;;5029386;28;20113;-76
2022/05/16 09:13:54;;;;;;;4.40;1.70;;;23.20;61.70;;;;;;5013869;28;19905;-77
2022/05/16 09:16:44;;;;;;;7.22;2.50;;;23.30;61.70;;;;;;5013697;28;20152;-75
2022/05/16 09:19:37;;;;;;;9.13;2.80;;;23.50;61.60;;;;;;5013736;28;20095;-75
2022/05/16 09:22:28;;;;;;;8.27;2.13;;;23.60;61.50;;;;;;5012357;28;20056;-75
2022/05/16 09:25:01;;;;;;;7.93;1.90;;;23.70;61.40;;;;;;5013759;28;20028;-75
2022/05/16 09:30:23;;;;;;;5.60;2.10;;;23.90;60.70;;;;;;5014105;28;20062;-75
2022/05/16 09:33:00;;;;;;;6.68;2.50;;;24.00;60.50;;;;;;5013509;28;20574;-75
2022/05/16 09:35:29;;;;;;;7.63;2.20;;;24.10;60.40;;;;;;5013621;28;20516;-75
2022/05/16 09:37:57;;;;;;;5.82;2.47;;;24.10;60.10;;;;;;5012226;28;20489;-76
2022/05/16 09:40:38;;;;;;;10.77;2.40;;;24.20;59.90;;;;;;4995876;28;20555;-75
2022/05/16 09:43:14;;;;;;;7.78;2.78;;;24.20;59.60;;;;;;5013483;28;20030;-77
2022/05/16 09:45:45;;;;;;;13.95;3.03;;;24.20;59.40;;;;;;5013464;28;20474;-79
2022/05/16 09:48:17;;;;;;;8.60;2.28;;;24.30;59.20;;;;;;5013442;28;20092;-77
2022/05/16 09:51:00;;;;;;;9.30;2.45;;;24.20;58.90;;;;;;4995822;28;20071;-76
2022/05/16 09:53:34;;;;;;;7.90;2.17;;;24.20;58.90;;;;;;5017661;28;20026;-77
2022/05/16 09:56:16;;;;;;;6.18;2.30;;;24.10;58.90;;;;;;5017424;28;20036;-78
2022/05/16 09:59:00;;;;;;;7.53;2.33;;;24.20;58.80;;;;;;5017618;28;20068;-77
2022/05/16 10:01:38;;;;;;;5.70;2.13;;;24.20;58.80;;;;;;5017321;28;20429;-77
2022/05/16 10:04:16;;;;;;;5.75;2.30;;;24.30;58.70;;;;;;4999747;28;20052;-77
2022/05/16 10:06:56;;;;;;;6.47;1.88;;;24.30;58.40;;;;;;4999680;28;20033;-82
2022/05/16 10:09:33;;;;;;;5.53;1.92;;;24.40;58.40;;;;;;4999526;28;20466;-77
2022/05/16 10:11:59;;;;;;;8.05;2.10;;;24.50;58.40;;;;;;5017236;28;20084;-77
2022/05/16 10:14:26;;;;;;;5.90;1.90;;;24.50;58.20;;;;;;4999488;28;20030;-78
2022/05/16 10:16:53;;;;;;;5.22;1.33;;;24.70;58.00;;;;;;5016968;28;20045;-80
2022/05/16 10:19:22;;;;;;;4.07;1.70;;;24.70;57.90;;;;;;5017022;28;20029;-78
2022/05/16 10:21:58;;;;;;;3.65;1.75;;;24.80;57.90;;;;;;4999315;28;20033;-77
2022/05/16 10:24:27;;;;;;;6.85;1.65;;;25.00;57.90;;;;;;5017032;28;20048;-77
2022/05/16 10:26:55;;;;;;;5.03;1.65;;;25.20;57.90;;;;;;5016804;28;20470;-77
2022/05/16 10:29:26;;;;;;;4.55;1.30;;;25.40;57.80;;;;;;4999571;28;20018;-77
2022/05/16 10:35:14;;;;;;;4.20;1.15;;;25.70;57.10;;;;;;4956310;29;20155;-79
2022/05/16 10:37:45;;;;;;;4.57;1.70;;;26.00;56.80;;;;;;4956472;28;20027;-78
2022/05/16 10:40:27;;;;;;;4.47;1.70;;;26.20;56.30;;;;;;4982211;28;20052;-77
2022/05/16 10:43:17;;;;;;;6.40;1.92;;;26.40;55.70;;;;;;5016673;28;20030;-78
2022/05/16 10:45:47;;;;;;;6.93;1.20;;;26.50;55.60;;;;;;5016394;28;20053;-77
2022/05/16 10:48:24;;;;;;;4.68;1.33;;;26.60;55.50;;;;;;5016163;28;20371;-80
2022/05/16 10:51:26;;;;;;;4.93;1.60;;;26.60;55.20;;;;;;5015223;28;20037;-80
2022/05/16 10:54:16;;;;;;;5.22;2.13;;;26.70;55.00;;;;;;5031586;28;20486;-78
2022/05/16 10:56:50;;;;;;;6.07;1.20;;;26.70;54.60;;;;;;4998745;28;20026;-78
2022/05/16 10:59:37;;;;;;;8.35;1.73;;;26.70;54.50;;;;;;5016250;28;20478;-79
2022/05/16 11:02:14;;;;;;;4.57;1.33;;;26.90;54.40;;;;;;5015773;28;20084;-79
2022/05/16 11:04:56;;;;;;;6.35;2.30;;;27.00;54.30;;;;;;5016148;28;20552;-79
2022/05/16 11:07:36;;;;;;;5.03;1.83;;;27.20;54.20;;;;;;5014892;28;20060;-79
2022/05/16 11:10:25;;;;;;;5.90;2.83;;;27.40;53.90;;;;;;5016071;28;20080;-80
2022/05/16 11:12:53;;;;;;;9.55;2.35;;;27.50;53.70;;;;;;4998664;28;20351;-80
2022/05/16 11:15:34;;;;;;;6.75;2.60;;;27.60;53.50;;;;;;5016102;28;20026;-76
2022/05/16 11:18:22;;;;;;;5.53;2.38;;;27.60;53.00;;;;;;5015896;28;20084;-77
2022/05/16 11:20:54;;;;;;;3.60;2.05;;;27.70;52.90;;;;;;5015968;28;20022;-79
2022/05/16 11:23:28;;;;;;;7.75;2.63;;;27.70;52.80;;;;;;4998038;28;20080;-80
2022/05/16 11:26:20;;;;;;;4.72;2.00;;;27.60;52.70;;;;;;5014515;28;20022;-80
2022/05/16 11:31:45;;;;;;;4.57;2.33;;;27.50;53.20;;;;;;5015933;28;20028;-79
2022/05/16 11:34:21;;;;;;;5.65;2.05;;;27.40;53.30;;;;;;5015576;28;20057;-79
2022/05/16 11:37:27;;;;;;;7.57;2.80;;;27.40;53.70;;;;;;5015813;28;20025;-77
2022/05/16 11:40:02;;;;;;;7.40;2.75;;;27.40;54.10;;;;;;5004586;28;20052;-79
2022/05/16 11:42:47;;;;;;;7.43;2.33;;;27.40;53.90;;;;;;5015558;28;20022;-77
2022/05/16 11:45:37;;;;;;;5.47;2.50;;;27.30;53.70;;;;;;4997735;28;20025;-79
2022/05/16 11:48:26;;;;;;;17.58;1.80;;;27.20;53.70;;;;;;5032728;28;20052;-79
2022/05/16 11:51:12;;;;;;;9.27;1.70;;;27.10;54.30;;;;;;5033959;28;20049;-78
2022/05/16 11:53:48;;;;;;;8.02;1.80;;;27.00;54.90;;;;;;5034970;28;20022;-79
2022/05/16 12:02:28;;;;;;;5.93;1.52;;;26.60;56.00;;;;;;5034453;28;20036;-79
2022/05/16 12:05:26;;;;;;;5.10;1.65;;;26.50;56.10;;;;;;5033408;28;20029;-79
2022/05/16 12:08:04;;;;;;;5.78;1.40;;;26.40;56.50;;;;;;4988729;28;20048;-79
2022/05/16 12:10:31;;;;;;;5.03;1.60;;;26.30;57.00;;;;;;5034689;28;20025;-79
2022/05/16 12:13:33;;;;;;;4.63;1.80;;;26.40;57.40;;;;;;5017144;28;20032;-80
2022/05/16 12:16:13;;;;;;;6.13;2.28;;;26.40;58.00;;;;;;5033037;28;20535;-78
2022/05/16 12:19:06;;;;;;;5.55;1.98;;;26.50;58.80;;;;;;5034721;28;20022;-79
2022/05/16 12:21:33;;;;;;;7.72;2.67;;;26.60;59.30;;;;;;5034258;28;20100;-81
2022/05/16 12:24:03;;;;;;;5.47;2.08;;;26.40;60.00;;;;;;5034423;28;20018;-79
2022/05/16 12:26:30;;;;;;;6.25;2.53;;;26.20;60.40;;;;;;5033198;28;20097;-81
2022/05/16 12:29:08;;;;;;;7.13;2.65;;;26.20;61.30;;;;;;5034454;28;20112;-79
2022/05/16 12:31:49;;;;;;;6.15;2.58;;;26.00;60.90;;;;;;5034540;28;20024;-79
2022/05/16 12:34:29;;;;;;;4.97;2.38;;;25.90;61.30;;;;;;5034177;28;20060;-78
2022/05/16 12:37:00;;;;;;;3.80;1.85;;;25.80;61.50;;;;;;5032832;28;20386;-80
2022/05/16 12:39:32;;;;;;;4.82;1.75;;;25.70;61.60;;;;;;5034153;28;20025;-78
2022/05/16 12:42:07;;;;;;;9.90;1.85;;;25.60;61.80;;;;;;5034248;28;20034;-79
2022/05/16 12:44:41;;;;;;;4.38;2.40;;;25.60;62.20;;;;;;5033850;28;20044;-78
2022/05/16 12:47:19;;;;;;;5.70;2.10;;;25.60;62.60;;;;;;5033876;28;20089;-78
2022/05/16 12:50:21;;;;;;;6.32;2.33;;;25.40;62.90;;;;;;5032689;28;20026;-78
2022/05/16 12:53:14;;;;;;;6.43;2.70;;;25.30;63.20;;;;;;5033938;28;20022;-79
2022/05/16 12:55:56;;;;;;;6.75;2.33;;;25.20;63.40;;;;;;5032499;28;20424;-80
2022/05/16 12:58:27;;;;;;;8.13;2.67;;;25.10;63.30;;;;;;5032552;28;20040;-77
2022/05/16 13:00:57;;;;;;;8.25;3.15;;;25.00;63.70;;;;;;5032613;28;20021;-81
2022/05/16 13:03:41;;;;;;;5.93;2.97;;;25.00;64.10;;;;;;5033614;28;20485;-78
2022/05/16 13:06:34;;;;;;;6.18;3.53;;;25.00;64.40;;;;;;5033802;28;20069;-79
2022/05/16 13:09:21;;;;;;;6.05;3.20;;;25.00;64.60;;;;;;5033741;28;20107;-80
2022/05/16 13:12:06;;;;;;;9.02;4.25;;;25.10;64.80;;;;;;5032618;28;20068;-78
2022/05/16 13:14:51;;;;;;;11.75;6.15;;;25.20;65.10;;;;;;5033610;28;20087;-81
2022/05/16 13:17:39;;;;;;;12.93;6.22;;;25.20;65.40;;;;;;5033541;28;20063;-78
2022/05/16 13:20:08;;;;;;;9.80;7.10;;;25.10;65.40;;;;;;5033890;28;20033;-79
2022/05/16 13:22:35;;;;;;;10.60;6.22;;;25.00;65.40;;;;;;5032360;28;20017;-78
2022/05/16 13:25:01;;;;;;;10.02;4.55;;;24.70;64.80;;;;;;5033382;28;20064;-82
2022/05/16 13:30:18;;;;;;;8.45;3.20;;;24.30;64.40;;;;;;5033668;28;20076;-79
2022/05/16 13:32:44;;;;;;;7.68;3.08;;;24.10;64.50;;;;;;5033464;28;20075;-79
2022/05/16 13:35:24;;;;;;;8.25;3.53;;;24.00;64.60;;;;;;5033223;28;20033;-81
2022/05/16 13:37:52;;;;;;;5.72;3.50;;;23.80;64.70;;;;;;5032169;28;20053;-80
2022/05/16 13:40:26;;;;;;;9.32;4.10;;;23.70;65.10;;;;;;5033232;28;20033;-79
2022/05/16 13:42:54;;;;;;;11.13;4.30;;;23.70;65.50;;;;;;5032052;28;20025;-79
2022/05/16 13:45:22;;;;;;;11.10;4.72;;;23.60;65.70;;;;;;5015947;28;20034;-81
2022/05/16 13:47:48;;;;;;;12.15;4.53;;;23.60;65.80;;;;;;5031941;28;20041;-84